sensor_id;sensor_type;location;lat;lon;timestamp;P1;durP1;ratioP1;P2;durP2;ratioP2
20482;SDS011;10400;53.198;6.592;2024-01-10T00:02:00;25.90;;;15.43;;
20482;SDS011;10400;53.198;6.592;2024-01-10T00:04:25;26.67;;;15.50;;
20482;SDS011;10400;53.198;6.592;2024-01-10T00:06:51;24.37;;;15.20;;
20482;SDS011;10400;53.198;6.592;2024-01-10T00:09:17;27.90;;;15.30;;
20482;SDS011;10400;53.198;6.592;2024-01-10T00:11:42;25.07;;;15.07;;
20482;SDS011;10400;53.198;6.592;2024-01-10T00:14:08;24.20;;;14.50;;
20482;SDS011;10400;53.198;6.592;2024-01-10T00:16:34;26.93;;;15.83;;
20482;SDS011;10400;53.198;6.592;2024-01-10T00:19:00;25.33;;;15.13;;
20482;SDS011;10400;53.198;6.592;2024-01-10T00:21:26;24.30;;;13.37;;
20482;SDS011;10400;53.198;6.592;2024-01-10T00:23:52;22.47;;;14.33;;
20482;SDS011;10400;53.198;6.592;2024-01-10T00:26:17;26.50;;;14.23;;
20482;SDS011;10400;53.198;6.592;2024-01-10T00:28:43;23.27;;;14.67;;
20482;SDS011;10400;53.198;6.592;2024-01-10T00:31:11;26.13;;;15.30;;
20482;SDS011;10400;53.198;6.592;2024-01-10T00:33:38;26.83;;;14.83;;
20482;SDS011;10400;53.198;6.592;2024-01-10T00:36:04;27.77;;;14.90;;
20482;SDS011;10400;53.198;6.592;2024-01-10T00:38:31;24.80;;;14.57;;
20482;SDS011;10400;53.198;6.592;2024-01-10T00:40:56;23.90;;;14.83;;
20482;SDS011;10400;53.198;6.592;2024-01-10T00:43:22;26.63;;;14.30;;
20482;SDS011;10400;53.198;6.592;2024-01-10T00:45:48;25.10;;;14.80;;
20482;SDS011;10400;53.198;6.592;2024-01-10T00:48:13;25.50;;;15.27;;
20482;SDS011;10400;53.198;6.592;2024-01-10T00:50:39;29.57;;;15.77;;
20482;SDS011;10400;53.198;6.592;2024-01-10T00:53:04;24.93;;;15.30;;
20482;SDS011;10400;53.198;6.592;2024-01-10T00:55:30;25.20;;;14.63;;
20482;SDS011;10400;53.198;6.592;2024-01-10T00:57:56;25.60;;;14.47;;
20482;SDS011;10400;53.198;6.592;2024-01-10T01:00:21;26.67;;;15.40;;
20482;SDS011;10400;53.198;6.592;2024-01-10T01:02:47;26.30;;;14.67;;
20482;SDS011;10400;53.198;6.592;2024-01-10T01:05:12;26.77;;;15.03;;
20482;SDS011;10400;53.198;6.592;2024-01-10T01:07:38;28.57;;;15.63;;
20482;SDS011;10400;53.198;6.592;2024-01-10T01:10:05;28.30;;;16.20;;
20482;SDS011;10400;53.198;6.592;2024-01-10T01:12:31;27.53;;;14.80;;
20482;SDS011;10400;53.198;6.592;2024-01-10T01:14:56;31.03;;;15.73;;
20482;SDS011;10400;53.198;6.592;2024-01-10T01:17:22;28.90;;;15.63;;
20482;SDS011;10400;53.198;6.592;2024-01-10T01:19:48;24.93;;;15.50;;
20482;SDS011;10400;53.198;6.592;2024-01-10T01:22:13;30.13;;;16.43;;
20482;SDS011;10400;53.198;6.592;2024-01-10T01:24:39;29.67;;;16.80;;
20482;SDS011;10400;53.198;6.592;2024-01-10T01:27:05;29.47;;;16.27;;
20482;SDS011;10400;53.198;6.592;2024-01-10T01:29:30;31.83;;;17.33;;
20482;SDS011;10400;53.198;6.592;2024-01-10T01:31:56;26.03;;;15.57;;
20482;SDS011;10400;53.198;6.592;2024-01-10T01:34:22;29.70;;;16.93;;
20482;SDS011;10400;53.198;6.592;2024-01-10T01:36:47;28.70;;;16.27;;
20482;SDS011;10400;53.198;6.592;2024-01-10T01:39:13;29.30;;;15.90;;
20482;SDS011;10400;53.198;6.592;2024-01-10T01:41:39;29.63;;;17.10;;
20482;SDS011;10400;53.198;6.592;2024-01-10T01:44:05;26.00;;;15.00;;
20482;SDS011;10400;53.198;6.592;2024-01-10T01:46:31;27.23;;;16.07;;
20482;SDS011;10400;53.198;6.592;2024-01-10T01:48:58;23.83;;;14.37;;
20482;SDS011;10400;53.198;6.592;2024-01-10T01:51:24;26.10;;;15.63;;
20482;SDS011;10400;53.198;6.592;2024-01-10T01:53:53;26.27;;;15.83;;
20482;SDS011;10400;53.198;6.592;2024-01-10T01:56:20;27.53;;;15.37;;
20482;SDS011;10400;53.198;6.592;2024-01-10T01:58:46;26.80;;;14.53;;
20482;SDS011;10400;53.198;6.592;2024-01-10T02:01:15;26.43;;;14.87;;
20482;SDS011;10400;53.198;6.592;2024-01-10T02:03:41;23.90;;;14.20;;
20482;SDS011;10400;53.198;6.592;2024-01-10T02:06:06;27.83;;;16.07;;
20482;SDS011;10400;53.198;6.592;2024-01-10T02:08:32;32.43;;;16.70;;
20482;SDS011;10400;53.198;6.592;2024-01-10T02:11:02;25.50;;;15.03;;
20482;SDS011;10400;53.198;6.592;2024-01-10T02:13:28;28.03;;;15.97;;
20482;SDS011;10400;53.198;6.592;2024-01-10T02:15:54;30.73;;;17.50;;
20482;SDS011;10400;53.198;6.592;2024-01-10T02:18:20;29.17;;;17.43;;
20482;SDS011;10400;53.198;6.592;2024-01-10T02:20:45;32.93;;;18.70;;
20482;SDS011;10400;53.198;6.592;2024-01-10T02:23:11;34.53;;;18.83;;
20482;SDS011;10400;53.198;6.592;2024-01-10T02:25:37;32.67;;;18.97;;
20482;SDS011;10400;53.198;6.592;2024-01-10T02:28:04;36.27;;;19.40;;
20482;SDS011;10400;53.198;6.592;2024-01-10T02:30:30;40.17;;;20.80;;
20482;SDS011;10400;53.198;6.592;2024-01-10T02:32:56;37.40;;;20.73;;
20482;SDS011;10400;53.198;6.592;2024-01-10T02:35:21;36.87;;;20.77;;
20482;SDS011;10400;53.198;6.592;2024-01-10T02:37:47;34.80;;;18.83;;
20482;SDS011;10400;53.198;6.592;2024-01-10T02:40:16;36.57;;;19.37;;
20482;SDS011;10400;53.198;6.592;2024-01-10T02:42:42;33.43;;;19.53;;
20482;SDS011;10400;53.198;6.592;2024-01-10T02:45:08;33.83;;;19.40;;
20482;SDS011;10400;53.198;6.592;2024-01-10T02:47:34;36.23;;;19.00;;
20482;SDS011;10400;53.198;6.592;2024-01-10T02:49:59;32.30;;;18.87;;
20482;SDS011;10400;53.198;6.592;2024-01-10T02:52:25;38.57;;;18.67;;
20482;SDS011;10400;53.198;6.592;2024-01-10T02:54:51;41.20;;;19.43;;
20482;SDS011;10400;53.198;6.592;2024-01-10T02:57:16;34.40;;;19.33;;
20482;SDS011;10400;53.198;6.592;2024-01-10T02:59:42;34.20;;;18.83;;
20482;SDS011;10400;53.198;6.592;2024-01-10T03:02:08;35.87;;;19.20;;
20482;SDS011;10400;53.198;6.592;2024-01-10T03:04:33;30.93;;;18.60;;
20482;SDS011;10400;53.198;6.592;2024-01-10T03:06:59;30.70;;;18.20;;
20482;SDS011;10400;53.198;6.592;2024-01-10T03:09:24;29.10;;;17.47;;
20482;SDS011;10400;53.198;6.592;2024-01-10T03:11:50;33.27;;;17.97;;
20482;SDS011;10400;53.198;6.592;2024-01-10T03:14:16;31.13;;;17.90;;
20482;SDS011;10400;53.198;6.592;2024-01-10T03:16:41;33.87;;;18.50;;
20482;SDS011;10400;53.198;6.592;2024-01-10T03:19:07;30.57;;;17.73;;
20482;SDS011;10400;53.198;6.592;2024-01-10T03:21:32;31.77;;;17.50;;
20482;SDS011;10400;53.198;6.592;2024-01-10T03:23:59;30.33;;;17.57;;
20482;SDS011;10400;53.198;6.592;2024-01-10T03:26:26;30.07;;;17.00;;
20482;SDS011;10400;53.198;6.592;2024-01-10T03:28:52;30.37;;;17.07;;
20482;SDS011;10400;53.198;6.592;2024-01-10T03:31:19;35.23;;;17.27;;
20482;SDS011;10400;53.198;6.592;2024-01-10T03:33:45;27.00;;;15.70;;
20482;SDS011;10400;53.198;6.592;2024-01-10T03:36:11;33.27;;;16.00;;
20482;SDS011;10400;53.198;6.592;2024-01-10T03:38:41;29.20;;;16.57;;
20482;SDS011;10400;53.198;6.592;2024-01-10T03:41:07;29.70;;;16.97;;
20482;SDS011;10400;53.198;6.592;2024-01-10T03:43:37;29.20;;;16.10;;
20482;SDS011;10400;53.198;6.592;2024-01-10T03:46:03;28.03;;;15.60;;
20482;SDS011;10400;53.198;6.592;2024-01-10T03:48:28;28.37;;;15.07;;
20482;SDS011;10400;53.198;6.592;2024-01-10T03:50:54;27.10;;;15.10;;
20482;SDS011;10400;53.198;6.592;2024-01-10T03:53:20;25.97;;;14.83;;
20482;SDS011;10400;53.198;6.592;2024-01-10T03:55:45;30.40;;;16.83;;
20482;SDS011;10400;53.198;6.592;2024-01-10T03:58:11;30.37;;;15.90;;
20482;SDS011;10400;53.198;6.592;2024-01-10T04:00:36;26.30;;;15.43;;
20482;SDS011;10400;53.198;6.592;2024-01-10T04:03:02;27.27;;;15.33;;
20482;SDS011;10400;53.198;6.592;2024-01-10T04:05:28;25.30;;;15.03;;
20482;SDS011;10400;53.198;6.592;2024-01-10T04:07:54;26.73;;;14.80;;
20482;SDS011;10400;53.198;6.592;2024-01-10T04:10:21;24.27;;;14.33;;
20482;SDS011;10400;53.198;6.592;2024-01-10T04:12:47;21.77;;;13.53;;
20482;SDS011;10400;53.198;6.592;2024-01-10T04:15:13;25.17;;;14.63;;
20482;SDS011;10400;53.198;6.592;2024-01-10T04:17:39;22.73;;;13.83;;
20482;SDS011;10400;53.198;6.592;2024-01-10T04:20:05;25.77;;;14.67;;
20482;SDS011;10400;53.198;6.592;2024-01-10T04:22:31;25.87;;;14.37;;
20482;SDS011;10400;53.198;6.592;2024-01-10T04:24:57;28.03;;;15.03;;
20482;SDS011;10400;53.198;6.592;2024-01-10T04:27:24;29.13;;;15.47;;
20482;SDS011;10400;53.198;6.592;2024-01-10T04:29:49;24.77;;;15.20;;
20482;SDS011;10400;53.198;6.592;2024-01-10T04:32:15;27.03;;;15.20;;
20482;SDS011;10400;53.198;6.592;2024-01-10T04:34:40;30.43;;;16.07;;
20482;SDS011;10400;53.198;6.592;2024-01-10T04:37:06;23.43;;;13.90;;
20482;SDS011;10400;53.198;6.592;2024-01-10T04:39:33;27.87;;;15.57;;
20482;SDS011;10400;53.198;6.592;2024-01-10T04:41:59;26.53;;;14.80;;
20482;SDS011;10400;53.198;6.592;2024-01-10T04:44:25;26.23;;;14.33;;
20482;SDS011;10400;53.198;6.592;2024-01-10T04:46:50;25.57;;;14.17;;
20482;SDS011;10400;53.198;6.592;2024-01-10T04:49:16;26.40;;;14.87;;
20482;SDS011;10400;53.198;6.592;2024-01-10T04:51:42;25.83;;;15.37;;
20482;SDS011;10400;53.198;6.592;2024-01-10T04:54:08;24.60;;;15.07;;
20482;SDS011;10400;53.198;6.592;2024-01-10T04:56:34;26.37;;;15.13;;
20482;SDS011;10400;53.198;6.592;2024-01-10T04:59:01;27.23;;;15.60;;
20482;SDS011;10400;53.198;6.592;2024-01-10T05:01:27;29.03;;;16.13;;
20482;SDS011;10400;53.198;6.592;2024-01-10T05:03:53;24.43;;;14.53;;
20482;SDS011;10400;53.198;6.592;2024-01-10T05:06:19;24.90;;;15.17;;
20482;SDS011;10400;53.198;6.592;2024-01-10T05:08:45;24.70;;;14.70;;
20482;SDS011;10400;53.198;6.592;2024-01-10T05:11:11;24.50;;;14.73;;
20482;SDS011;10400;53.198;6.592;2024-01-10T05:13:37;25.93;;;15.57;;
20482;SDS011;10400;53.198;6.592;2024-01-10T05:16:04;22.57;;;14.13;;
20482;SDS011;10400;53.198;6.592;2024-01-10T05:18:30;27.87;;;15.33;;
20482;SDS011;10400;53.198;6.592;2024-01-10T05:20:55;28.10;;;15.47;;
20482;SDS011;10400;53.198;6.592;2024-01-10T05:23:22;23.70;;;14.40;;
20482;SDS011;10400;53.198;6.592;2024-01-10T05:25:48;27.73;;;15.77;;
20482;SDS011;10400;53.198;6.592;2024-01-10T05:28:14;25.30;;;15.27;;
20482;SDS011;10400;53.198;6.592;2024-01-10T05:30:40;28.37;;;15.50;;
20482;SDS011;10400;53.198;6.592;2024-01-10T05:33:07;23.10;;;14.40;;
20482;SDS011;10400;53.198;6.592;2024-01-10T05:35:33;26.10;;;14.57;;
20482;SDS011;10400;53.198;6.592;2024-01-10T05:38:00;24.73;;;14.70;;
20482;SDS011;10400;53.198;6.592;2024-01-10T05:40:27;25.77;;;14.97;;
20482;SDS011;10400;53.198;6.592;2024-01-10T05:42:55;23.83;;;14.60;;
20482;SDS011;10400;53.198;6.592;2024-01-10T05:45:20;26.57;;;14.73;;
20482;SDS011;10400;53.198;6.592;2024-01-10T05:47:46;26.97;;;14.93;;
20482;SDS011;10400;53.198;6.592;2024-01-10T05:50:13;23.77;;;14.77;;
20482;SDS011;10400;53.198;6.592;2024-01-10T05:52:39;25.43;;;15.03;;
20482;SDS011;10400;53.198;6.592;2024-01-10T05:55:05;26.60;;;16.03;;
20482;SDS011;10400;53.198;6.592;2024-01-10T05:57:34;27.43;;;16.70;;
20482;SDS011;10400;53.198;6.592;2024-01-10T06:00:00;29.47;;;15.90;;
20482;SDS011;10400;53.198;6.592;2024-01-10T06:02:25;27.53;;;16.53;;
20482;SDS011;10400;53.198;6.592;2024-01-10T06:04:52;26.30;;;15.77;;
20482;SDS011;10400;53.198;6.592;2024-01-10T06:07:17;26.90;;;15.60;;
20482;SDS011;10400;53.198;6.592;2024-01-10T06:09:43;26.10;;;15.47;;
20482;SDS011;10400;53.198;6.592;2024-01-10T06:12:09;25.63;;;14.90;;
20482;SDS011;10400;53.198;6.592;2024-01-10T06:14:35;24.60;;;14.70;;
20482;SDS011;10400;53.198;6.592;2024-01-10T06:17:01;25.43;;;14.80;;
20482;SDS011;10400;53.198;6.592;2024-01-10T06:19:28;25.73;;;15.47;;
20482;SDS011;10400;53.198;6.592;2024-01-10T06:21:56;22.47;;;13.87;;
20482;SDS011;10400;53.198;6.592;2024-01-10T06:24:22;24.67;;;14.47;;
20482;SDS011;10400;53.198;6.592;2024-01-10T06:26:47;25.13;;;15.43;;
20482;SDS011;10400;53.198;6.592;2024-01-10T06:29:14;25.80;;;14.63;;
20482;SDS011;10400;53.198;6.592;2024-01-10T06:31:40;24.90;;;14.93;;
20482;SDS011;10400;53.198;6.592;2024-01-10T06:34:06;27.13;;;13.87;;
20482;SDS011;10400;53.198;6.592;2024-01-10T06:36:32;23.67;;;13.47;;
20482;SDS011;10400;53.198;6.592;2024-01-10T06:38:57;22.73;;;13.37;;
20482;SDS011;10400;53.198;6.592;2024-01-10T06:41:23;23.13;;;14.03;;
20482;SDS011;10400;53.198;6.592;2024-01-10T06:43:50;22.33;;;12.73;;
20482;SDS011;10400;53.198;6.592;2024-01-10T06:46:16;24.00;;;13.83;;
20482;SDS011;10400;53.198;6.592;2024-01-10T06:48:42;22.50;;;13.23;;
20482;SDS011;10400;53.198;6.592;2024-01-10T06:51:12;24.83;;;14.83;;
20482;SDS011;10400;53.198;6.592;2024-01-10T06:53:38;21.93;;;13.93;;
20482;SDS011;10400;53.198;6.592;2024-01-10T06:56:05;24.30;;;14.07;;
20482;SDS011;10400;53.198;6.592;2024-01-10T06:58:31;25.73;;;13.53;;
20482;SDS011;10400;53.198;6.592;2024-01-10T07:00:56;24.10;;;13.73;;
20482;SDS011;10400;53.198;6.592;2024-01-10T07:03:23;27.43;;;14.07;;
20482;SDS011;10400;53.198;6.592;2024-01-10T07:05:48;26.47;;;14.03;;
20482;SDS011;10400;53.198;6.592;2024-01-10T07:08:14;25.27;;;14.37;;
20482;SDS011;10400;53.198;6.592;2024-01-10T07:10:41;23.77;;;14.20;;
20482;SDS011;10400;53.198;6.592;2024-01-10T07:13:07;25.50;;;14.03;;
20482;SDS011;10400;53.198;6.592;2024-01-10T07:15:33;24.87;;;15.20;;
20482;SDS011;10400;53.198;6.592;2024-01-10T07:17:58;27.43;;;14.50;;
20482;SDS011;10400;53.198;6.592;2024-01-10T07:20:24;27.73;;;15.03;;
20482;SDS011;10400;53.198;6.592;2024-01-10T07:22:50;27.73;;;14.73;;
20482;SDS011;10400;53.198;6.592;2024-01-10T07:25:16;28.43;;;14.73;;
20482;SDS011;10400;53.198;6.592;2024-01-10T07:27:42;32.43;;;15.37;;
20482;SDS011;10400;53.198;6.592;2024-01-10T07:30:09;27.00;;;14.43;;
20482;SDS011;10400;53.198;6.592;2024-01-10T07:32:41;30.80;;;15.67;;
20482;SDS011;10400;53.198;6.592;2024-01-10T07:35:08;31.43;;;15.50;;
20482;SDS011;10400;53.198;6.592;2024-01-10T07:37:40;29.90;;;13.93;;
20482;SDS011;10400;53.198;6.592;2024-01-10T07:40:07;27.87;;;14.77;;
20482;SDS011;10400;53.198;6.592;2024-01-10T07:42:35;33.33;;;16.70;;
20482;SDS011;10400;53.198;6.592;2024-01-10T07:45:02;32.13;;;15.53;;
20482;SDS011;10400;53.198;6.592;2024-01-10T07:47:32;33.53;;;15.27;;
20482;SDS011;10400;53.198;6.592;2024-01-10T07:50:06;32.47;;;14.07;;
20482;SDS011;10400;53.198;6.592;2024-01-10T07:52:32;36.20;;;15.47;;
20482;SDS011;10400;53.198;6.592;2024-01-10T07:54:59;35.20;;;14.77;;
20482;SDS011;10400;53.198;6.592;2024-01-10T07:57:25;32.83;;;14.63;;
20482;SDS011;10400;53.198;6.592;2024-01-10T07:59:51;29.17;;;13.57;;
20482;SDS011;10400;53.198;6.592;2024-01-10T08:02:17;33.67;;;14.03;;
20482;SDS011;10400;53.198;6.592;2024-01-10T08:04:43;30.93;;;13.53;;
20482;SDS011;10400;53.198;6.592;2024-01-10T08:07:09;34.77;;;14.73;;
20482;SDS011;10400;53.198;6.592;2024-01-10T08:09:35;31.57;;;13.20;;
20482;SDS011;10400;53.198;6.592;2024-01-10T08:12:01;31.77;;;13.67;;
20482;SDS011;10400;53.198;6.592;2024-01-10T08:14:28;37.00;;;14.43;;
20482;SDS011;10400;53.198;6.592;2024-01-10T08:16:53;25.73;;;12.17;;
20482;SDS011;10400;53.198;6.592;2024-01-10T08:19:20;29.03;;;13.40;;
20482;SDS011;10400;53.198;6.592;2024-01-10T08:21:46;31.87;;;14.50;;
20482;SDS011;10400;53.198;6.592;2024-01-10T08:24:11;26.47;;;13.43;;
20482;SDS011;10400;53.198;6.592;2024-01-10T08:26:37;30.57;;;12.03;;
20482;SDS011;10400;53.198;6.592;2024-01-10T08:29:03;28.80;;;12.07;;
20482;SDS011;10400;53.198;6.592;2024-01-10T08:31:29;29.13;;;13.73;;
20482;SDS011;10400;53.198;6.592;2024-01-10T08:33:54;28.17;;;12.80;;
20482;SDS011;10400;53.198;6.592;2024-01-10T08:36:22;26.50;;;12.20;;
20482;SDS011;10400;53.198;6.592;2024-01-10T08:38:49;27.23;;;12.20;;
20482;SDS011;10400;53.198;6.592;2024-01-10T08:41:15;27.87;;;12.63;;
20482;SDS011;10400;53.198;6.592;2024-01-10T08:43:41;24.60;;;12.60;;
20482;SDS011;10400;53.198;6.592;2024-01-10T08:46:10;27.17;;;13.13;;
20482;SDS011;10400;53.198;6.592;2024-01-10T08:48:36;30.17;;;14.27;;
20482;SDS011;10400;53.198;6.592;2024-01-10T08:51:01;28.97;;;14.10;;
20482;SDS011;10400;53.198;6.592;2024-01-10T08:53:27;35.57;;;18.07;;
20482;SDS011;10400;53.198;6.592;2024-01-10T08:55:53;35.03;;;18.30;;
20482;SDS011;10400;53.198;6.592;2024-01-10T08:58:19;40.80;;;18.17;;
20482;SDS011;10400;53.198;6.592;2024-01-10T09:00:45;37.57;;;18.00;;
20482;SDS011;10400;53.198;6.592;2024-01-10T09:03:11;34.43;;;16.50;;
20482;SDS011;10400;53.198;6.592;2024-01-10T09:05:37;36.50;;;17.13;;
20482;SDS011;10400;53.198;6.592;2024-01-10T09:08:03;37.93;;;17.57;;
20482;SDS011;10400;53.198;6.592;2024-01-10T09:10:29;44.93;;;18.83;;
20482;SDS011;10400;53.198;6.592;2024-01-10T09:12:54;36.13;;;16.20;;
20482;SDS011;10400;53.198;6.592;2024-01-10T09:15:20;40.13;;;19.57;;
20482;SDS011;10400;53.198;6.592;2024-01-10T09:17:46;34.67;;;15.37;;
20482;SDS011;10400;53.198;6.592;2024-01-10T09:20:12;40.60;;;19.70;;
20482;SDS011;10400;53.198;6.592;2024-01-10T09:22:40;38.27;;;18.00;;
20482;SDS011;10400;53.198;6.592;2024-01-10T09:25:05;36.37;;;16.97;;
20482;SDS011;10400;53.198;6.592;2024-01-10T09:27:32;39.97;;;16.23;;
20482;SDS011;10400;53.198;6.592;2024-01-10T09:30:01;36.77;;;14.90;;
20482;SDS011;10400;53.198;6.592;2024-01-10T09:32:27;33.23;;;13.90;;
20482;SDS011;10400;53.198;6.592;2024-01-10T09:34:54;29.20;;;13.03;;
20482;SDS011;10400;53.198;6.592;2024-01-10T09:37:23;30.03;;;14.13;;
20482;SDS011;10400;53.198;6.592;2024-01-10T09:39:49;29.37;;;12.73;;
20482;SDS011;10400;53.198;6.592;2024-01-10T09:42:14;26.73;;;12.40;;
20482;SDS011;10400;53.198;6.592;2024-01-10T09:44:40;32.23;;;13.80;;
20482;SDS011;10400;53.198;6.592;2024-01-10T09:47:07;29.70;;;13.20;;
20482;SDS011;10400;53.198;6.592;2024-01-10T09:49:33;26.37;;;11.67;;
20482;SDS011;10400;53.198;6.592;2024-01-10T09:52:00;24.00;;;11.27;;
20482;SDS011;10400;53.198;6.592;2024-01-10T09:54:29;26.90;;;11.20;;
20482;SDS011;10400;53.198;6.592;2024-01-10T09:56:56;19.83;;;9.30;;
20482;SDS011;10400;53.198;6.592;2024-01-10T09:59:22;25.73;;;11.10;;
20482;SDS011;10400;53.198;6.592;2024-01-10T10:01:48;24.30;;;9.90;;
20482;SDS011;10400;53.198;6.592;2024-01-10T10:04:16;24.70;;;9.43;;
20482;SDS011;10400;53.198;6.592;2024-01-10T10:06:45;22.20;;;10.70;;
20482;SDS011;10400;53.198;6.592;2024-01-10T10:09:11;23.73;;;10.37;;
20482;SDS011;10400;53.198;6.592;2024-01-10T10:11:37;26.10;;;10.50;;
20482;SDS011;10400;53.198;6.592;2024-01-10T10:14:16;21.87;;;10.50;;
20482;SDS011;10400;53.198;6.592;2024-01-10T10:16:43;20.87;;;9.23;;
20482;SDS011;10400;53.198;6.592;2024-01-10T10:19:09;26.53;;;10.63;;
20482;SDS011;10400;53.198;6.592;2024-01-10T10:21:36;30.30;;;10.93;;
20482;SDS011;10400;53.198;6.592;2024-01-10T10:24:03;21.30;;;10.03;;
20482;SDS011;10400;53.198;6.592;2024-01-10T10:26:29;20.47;;;9.73;;
20482;SDS011;10400;53.198;6.592;2024-01-10T10:28:57;21.37;;;9.80;;
20482;SDS011;10400;53.198;6.592;2024-01-10T10:31:23;20.20;;;9.53;;
20482;SDS011;10400;53.198;6.592;2024-01-10T10:33:50;23.13;;;10.17;;
20482;SDS011;10400;53.198;6.592;2024-01-10T10:36:16;23.47;;;8.93;;
20482;SDS011;10400;53.198;6.592;2024-01-10T10:38:42;20.57;;;9.43;;
20482;SDS011;10400;53.198;6.592;2024-01-10T10:41:08;21.93;;;9.20;;
20482;SDS011;10400;53.198;6.592;2024-01-10T10:43:35;23.13;;;9.43;;
20482;SDS011;10400;53.198;6.592;2024-01-10T10:46:02;20.33;;;9.70;;
20482;SDS011;10400;53.198;6.592;2024-01-10T10:48:32;21.33;;;10.00;;
20482;SDS011;10400;53.198;6.592;2024-01-10T10:51:07;17.97;;;8.80;;
20482;SDS011;10400;53.198;6.592;2024-01-10T10:53:34;21.47;;;9.70;;
20482;SDS011;10400;53.198;6.592;2024-01-10T10:56:04;20.70;;;9.57;;
20482;SDS011;10400;53.198;6.592;2024-01-10T10:58:39;21.53;;;9.87;;
20482;SDS011;10400;53.198;6.592;2024-01-10T11:01:06;22.10;;;9.17;;
20482;SDS011;10400;53.198;6.592;2024-01-10T11:03:36;16.63;;;8.67;;
20482;SDS011;10400;53.198;6.592;2024-01-10T11:06:03;16.00;;;8.10;;
20482;SDS011;10400;53.198;6.592;2024-01-10T11:08:35;21.07;;;9.27;;
20482;SDS011;10400;53.198;6.592;2024-01-10T11:22:39;18.50;;;8.30;;
20482;SDS011;10400;53.198;6.592;2024-01-10T11:25:11;18.27;;;8.10;;
20482;SDS011;10400;53.198;6.592;2024-01-10T11:27:36;18.37;;;8.57;;
20482;SDS011;10400;53.198;6.592;2024-01-10T11:30:02;19.83;;;7.80;;
20482;SDS011;10400;53.198;6.592;2024-01-10T11:32:30;19.13;;;8.93;;
20482;SDS011;10400;53.198;6.592;2024-01-10T11:37:28;16.73;;;8.40;;
20482;SDS011;10400;53.198;6.592;2024-01-10T11:40:09;19.77;;;9.03;;
20482;SDS011;10400;53.198;6.592;2024-01-10T11:42:43;20.83;;;8.73;;
20482;SDS011;10400;53.198;6.592;2024-01-10T11:45:15;18.53;;;9.57;;
20482;SDS011;10400;53.198;6.592;2024-01-10T11:47:59;19.03;;;8.77;;
20482;SDS011;10400;53.198;6.592;2024-01-10T11:50:25;20.53;;;9.13;;
20482;SDS011;10400;53.198;6.592;2024-01-10T11:52:54;16.83;;;8.13;;
20482;SDS011;10400;53.198;6.592;2024-01-10T11:58:17;16.87;;;8.60;;
20482;SDS011;10400;53.198;6.592;2024-01-10T12:00:43;17.63;;;9.23;;
20482;SDS011;10400;53.198;6.592;2024-01-10T12:03:10;18.40;;;8.43;;
20482;SDS011;10400;53.198;6.592;2024-01-10T12:05:37;18.07;;;8.67;;
20482;SDS011;10400;53.198;6.592;2024-01-10T12:08:06;17.37;;;8.40;;
20482;SDS011;10400;53.198;6.592;2024-01-10T12:10:33;19.90;;;8.67;;
20482;SDS011;10400;53.198;6.592;2024-01-10T12:13:01;16.83;;;8.13;;
20482;SDS011;10400;53.198;6.592;2024-01-10T12:15:28;20.83;;;9.90;;
20482;SDS011;10400;53.198;6.592;2024-01-10T12:17:54;18.80;;;9.10;;
20482;SDS011;10400;53.198;6.592;2024-01-10T12:20:20;20.33;;;9.87;;
20482;SDS011;10400;53.198;6.592;2024-01-10T12:22:46;20.57;;;9.37;;
20482;SDS011;10400;53.198;6.592;2024-01-10T12:25:12;18.27;;;9.00;;
20482;SDS011;10400;53.198;6.592;2024-01-10T12:27:38;17.57;;;9.13;;
20482;SDS011;10400;53.198;6.592;2024-01-10T12:30:04;19.50;;;8.80;;
20482;SDS011;10400;53.198;6.592;2024-01-10T12:32:31;21.03;;;9.40;;
20482;SDS011;10400;53.198;6.592;2024-01-10T12:35:01;19.80;;;8.97;;
20482;SDS011;10400;53.198;6.592;2024-01-10T12:37:27;19.50;;;9.43;;
20482;SDS011;10400;53.198;6.592;2024-01-10T12:39:53;22.30;;;9.33;;
20482;SDS011;10400;53.198;6.592;2024-01-10T12:42:19;23.27;;;9.43;;
20482;SDS011;10400;53.198;6.592;2024-01-10T12:44:44;19.83;;;9.17;;
20482;SDS011;10400;53.198;6.592;2024-01-10T12:47:20;19.60;;;9.30;;
20482;SDS011;10400;53.198;6.592;2024-01-10T12:49:48;18.53;;;9.70;;
20482;SDS011;10400;53.198;6.592;2024-01-10T12:52:14;17.50;;;9.20;;
20482;SDS011;10400;53.198;6.592;2024-01-10T12:54:40;23.63;;;10.83;;
20482;SDS011;10400;53.198;6.592;2024-01-10T12:57:06;18.63;;;9.17;;
20482;SDS011;10400;53.198;6.592;2024-01-10T12:59:34;20.93;;;9.60;;
20482;SDS011;10400;53.198;6.592;2024-01-10T13:02:00;22.67;;;10.70;;
20482;SDS011;10400;53.198;6.592;2024-01-10T13:04:26;24.10;;;10.00;;
20482;SDS011;10400;53.198;6.592;2024-01-10T13:06:52;21.47;;;10.03;;
20482;SDS011;10400;53.198;6.592;2024-01-10T13:09:18;22.97;;;9.47;;
20482;SDS011;10400;53.198;6.592;2024-01-10T13:11:43;22.77;;;9.67;;
20482;SDS011;10400;53.198;6.592;2024-01-10T13:14:10;21.40;;;10.03;;
20482;SDS011;10400;53.198;6.592;2024-01-10T13:16:37;18.87;;;9.97;;
20482;SDS011;10400;53.198;6.592;2024-01-10T13:19:02;18.77;;;8.97;;
20482;SDS011;10400;53.198;6.592;2024-01-10T13:21:28;21.17;;;10.57;;
20482;SDS011;10400;53.198;6.592;2024-01-10T13:23:53;19.90;;;9.40;;
20482;SDS011;10400;53.198;6.592;2024-01-10T13:26:20;21.70;;;9.73;;
20482;SDS011;10400;53.198;6.592;2024-01-10T13:28:45;18.70;;;9.10;;
20482;SDS011;10400;53.198;6.592;2024-01-10T13:31:11;20.27;;;9.67;;
20482;SDS011;10400;53.198;6.592;2024-01-10T13:33:37;21.83;;;10.43;;
20482;SDS011;10400;53.198;6.592;2024-01-10T13:36:03;23.67;;;10.10;;
20482;SDS011;10400;53.198;6.592;2024-01-10T13:38:29;20.37;;;9.87;;
20482;SDS011;10400;53.198;6.592;2024-01-10T13:40:55;23.53;;;9.63;;
20482;SDS011;10400;53.198;6.592;2024-01-10T13:43:21;19.93;;;9.50;;
20482;SDS011;10400;53.198;6.592;2024-01-10T13:45:47;24.73;;;10.40;;
20482;SDS011;10400;53.198;6.592;2024-01-10T13:48:13;17.93;;;9.70;;
20482;SDS011;10400;53.198;6.592;2024-01-10T13:50:38;21.63;;;9.67;;
20482;SDS011;10400;53.198;6.592;2024-01-10T13:53:04;19.90;;;9.53;;
20482;SDS011;10400;53.198;6.592;2024-01-10T13:55:30;22.37;;;10.00;;
20482;SDS011;10400;53.198;6.592;2024-01-10T13:57:56;19.13;;;9.60;;
20482;SDS011;10400;53.198;6.592;2024-01-10T14:00:22;15.13;;;8.50;;
20482;SDS011;10400;53.198;6.592;2024-01-10T14:02:48;18.17;;;9.07;;
20482;SDS011;10400;53.198;6.592;2024-01-10T14:05:14;18.63;;;8.97;;
20482;SDS011;10400;53.198;6.592;2024-01-10T14:07:40;17.43;;;8.83;;
20482;SDS011;10400;53.198;6.592;2024-01-10T14:10:15;20.70;;;9.30;;
20482;SDS011;10400;53.198;6.592;2024-01-10T14:12:40;21.17;;;9.30;;
20482;SDS011;10400;53.198;6.592;2024-01-10T14:15:06;19.67;;;9.93;;
20482;SDS011;10400;53.198;6.592;2024-01-10T14:17:34;22.50;;;10.43;;
20482;SDS011;10400;53.198;6.592;2024-01-10T14:20:00;21.37;;;10.50;;
20482;SDS011;10400;53.198;6.592;2024-01-10T14:22:25;19.67;;;10.30;;
20482;SDS011;10400;53.198;6.592;2024-01-10T14:24:51;22.23;;;11.03;;
20482;SDS011;10400;53.198;6.592;2024-01-10T14:27:19;22.07;;;9.97;;
20482;SDS011;10400;53.198;6.592;2024-01-10T14:29:45;21.50;;;11.47;;
20482;SDS011;10400;53.198;6.592;2024-01-10T14:32:11;22.03;;;10.50;;
20482;SDS011;10400;53.198;6.592;2024-01-10T14:34:39;22.77;;;11.40;;
20482;SDS011;10400;53.198;6.592;2024-01-10T14:37:05;21.87;;;11.13;;